sensor_id;sensor_type;location;lat;lon;timestamp;P1;durP1;ratioP1;P2;durP2;ratioP2
45694;SDS011;31408;45.468;9.124;2023-08-01T00:01:48;9.25;;;5.38;;
45694;SDS011;31408;45.468;9.124;2023-08-01T00:04:14;10.20;;;5.82;;
45694;SDS011;31408;45.468;9.124;2023-08-01T00:06:39;10.80;;;5.57;;
45694;SDS011;31408;45.468;9.124;2023-08-01T00:09:05;10.82;;;5.70;;
45694;SDS011;31408;45.468;9.124;2023-08-01T00:11:30;9.20;;;5.80;;
45694;SDS011;31408;45.468;9.124;2023-08-01T00:13:55;12.48;;;5.85;;
45694;SDS011;31408;45.468;9.124;2023-08-01T00:16:21;7.80;;;5.03;;
45694;SDS011;31408;45.468;9.124;2023-08-01T00:18:46;10.07;;;6.10;;
45694;SDS011;31408;45.468;9.124;2023-08-01T00:21:12;10.80;;;5.63;;
45694;SDS011;31408;45.468;9.124;2023-08-01T00:23:38;9.75;;;5.25;;
45694;SDS011;31408;45.468;9.124;2023-08-01T00:26:03;11.05;;;5.22;;
45694;SDS011;31408;45.468;9.124;2023-08-01T00:28:29;15.65;;;5.40;;
45694;SDS011;31408;45.468;9.124;2023-08-01T00:31:05;9.02;;;5.45;;
45694;SDS011;31408;45.468;9.124;2023-08-01T00:33:32;9.55;;;4.85;;
45694;SDS011;31408;45.468;9.124;2023-08-01T00:35:57;9.30;;;4.93;;
45694;SDS011;31408;45.468;9.124;2023-08-01T00:38:23;8.40;;;5.03;;
45694;SDS011;31408;45.468;9.124;2023-08-01T00:40:48;6.60;;;4.32;;
45694;SDS011;31408;45.468;9.124;2023-08-01T00:43:15;9.68;;;4.78;;
45694;SDS011;31408;45.468;9.124;2023-08-01T00:45:41;7.45;;;4.90;;
45694;SDS011;31408;45.468;9.124;2023-08-01T00:48:07;10.00;;;5.03;;
45694;SDS011;31408;45.468;9.124;2023-08-01T00:50:33;9.40;;;5.10;;
45694;SDS011;31408;45.468;9.124;2023-08-01T00:52:58;9.90;;;5.55;;
45694;SDS011;31408;45.468;9.124;2023-08-01T00:55:24;11.07;;;5.85;;
45694;SDS011;31408;45.468;9.124;2023-08-01T00:57:51;9.10;;;5.97;;
45694;SDS011;31408;45.468;9.124;2023-08-01T01:00:17;7.13;;;4.38;;
45694;SDS011;31408;45.468;9.124;2023-08-01T01:02:43;9.75;;;5.90;;
45694;SDS011;31408;45.468;9.124;2023-08-01T01:05:08;9.77;;;4.95;;
45694;SDS011;31408;45.468;9.124;2023-08-01T01:07:34;9.75;;;5.60;;
45694;SDS011;31408;45.468;9.124;2023-08-01T01:10:00;9.13;;;5.60;;
45694;SDS011;31408;45.468;9.124;2023-08-01T01:12:25;9.00;;;4.95;;
45694;SDS011;31408;45.468;9.124;2023-08-01T01:14:51;11.07;;;5.57;;
45694;SDS011;31408;45.468;9.124;2023-08-01T01:17:16;9.70;;;5.60;;
45694;SDS011;31408;45.468;9.124;2023-08-01T01:19:42;9.77;;;5.60;;
45694;SDS011;31408;45.468;9.124;2023-08-01T01:22:07;10.55;;;5.70;;
45694;SDS011;31408;45.468;9.124;2023-08-01T01:24:34;12.25;;;6.13;;
45694;SDS011;31408;45.468;9.124;2023-08-01T01:27:00;11.43;;;6.22;;
45694;SDS011;31408;45.468;9.124;2023-08-01T01:29:28;13.63;;;6.57;;
45694;SDS011;31408;45.468;9.124;2023-08-01T01:31:54;9.48;;;5.95;;
45694;SDS011;31408;45.468;9.124;2023-08-01T01:34:21;11.07;;;6.38;;
45694;SDS011;31408;45.468;9.124;2023-08-01T01:36:47;13.20;;;6.43;;
45694;SDS011;31408;45.468;9.124;2023-08-01T01:39:12;9.95;;;5.97;;
45694;SDS011;31408;45.468;9.124;2023-08-01T01:41:37;15.65;;;6.45;;
45694;SDS011;31408;45.468;9.124;2023-08-01T01:44:03;11.65;;;6.07;;
45694;SDS011;31408;45.468;9.124;2023-08-01T01:46:28;11.40;;;6.20;;
45694;SDS011;31408;45.468;9.124;2023-08-01T01:48:54;9.95;;;6.43;;
45694;SDS011;31408;45.468;9.124;2023-08-01T01:51:21;13.10;;;6.80;;
45694;SDS011;31408;45.468;9.124;2023-08-01T01:53:46;13.73;;;6.30;;
45694;SDS011;31408;45.468;9.124;2023-08-01T01:56:12;11.45;;;6.28;;
45694;SDS011;31408;45.468;9.124;2023-08-01T01:58:37;11.38;;;6.47;;
45694;SDS011;31408;45.468;9.124;2023-08-01T02:01:03;16.10;;;7.35;;
45694;SDS011;31408;45.468;9.124;2023-08-01T02:03:29;11.90;;;6.63;;
45694;SDS011;31408;45.468;9.124;2023-08-01T02:05:55;10.02;;;6.07;;
45694;SDS011;31408;45.468;9.124;2023-08-01T02:08:21;13.00;;;6.85;;
45694;SDS011;31408;45.468;9.124;2023-08-01T02:10:47;14.40;;;7.80;;
45694;SDS011;31408;45.468;9.124;2023-08-01T02:13:13;12.02;;;6.18;;
45694;SDS011;31408;45.468;9.124;2023-08-01T02:15:38;10.60;;;6.55;;
45694;SDS011;31408;45.468;9.124;2023-08-01T02:18:04;14.63;;;7.90;;
45694;SDS011;31408;45.468;9.124;2023-08-01T02:20:29;13.20;;;6.72;;
45694;SDS011;31408;45.468;9.124;2023-08-01T02:22:55;11.68;;;6.55;;
45694;SDS011;31408;45.468;9.124;2023-08-01T02:25:20;11.27;;;6.70;;
45694;SDS011;31408;45.468;9.124;2023-08-01T02:27:46;10.35;;;5.32;;
45694;SDS011;31408;45.468;9.124;2023-08-01T02:30:11;10.25;;;5.60;;
45694;SDS011;31408;45.468;9.124;2023-08-01T02:32:36;12.68;;;6.22;;
45694;SDS011;31408;45.468;9.124;2023-08-01T02:35:02;11.73;;;6.82;;
45694;SDS011;31408;45.468;9.124;2023-08-01T02:37:28;12.07;;;6.13;;
45694;SDS011;31408;45.468;9.124;2023-08-01T02:39:54;13.05;;;6.53;;
45694;SDS011;31408;45.468;9.124;2023-08-01T02:42:19;12.35;;;7.07;;
45694;SDS011;31408;45.468;9.124;2023-08-01T02:44:45;12.95;;;7.60;;
45694;SDS011;31408;45.468;9.124;2023-08-01T02:47:10;11.32;;;6.55;;
45694;SDS011;31408;45.468;9.124;2023-08-01T02:49:35;11.10;;;6.38;;
45694;SDS011;31408;45.468;9.124;2023-08-01T02:52:02;18.45;;;7.18;;
45694;SDS011;31408;45.468;9.124;2023-08-01T02:54:28;11.65;;;7.05;;
45694;SDS011;31408;45.468;9.124;2023-08-01T02:56:53;14.80;;;7.05;;
45694;SDS011;31408;45.468;9.124;2023-08-01T02:59:19;11.88;;;5.88;;
45694;SDS011;31408;45.468;9.124;2023-08-01T03:01:44;9.73;;;5.93;;
45694;SDS011;31408;45.468;9.124;2023-08-01T03:04:10;9.18;;;5.85;;
45694;SDS011;31408;45.468;9.124;2023-08-01T03:06:39;9.68;;;5.63;;
45694;SDS011;31408;45.468;9.124;2023-08-01T03:09:05;11.27;;;6.07;;
45694;SDS011;31408;45.468;9.124;2023-08-01T03:11:33;10.82;;;6.53;;
45694;SDS011;31408;45.468;9.124;2023-08-01T03:14:00;11.43;;;5.95;;
45694;SDS011;31408;45.468;9.124;2023-08-01T03:16:26;10.48;;;5.10;;
45694;SDS011;31408;45.468;9.124;2023-08-01T03:18:51;10.40;;;5.35;;
45694;SDS011;31408;45.468;9.124;2023-08-01T03:21:17;8.38;;;4.85;;
45694;SDS011;31408;45.468;9.124;2023-08-01T03:23:42;9.45;;;4.95;;
45694;SDS011;31408;45.468;9.124;2023-08-01T03:26:08;7.93;;;4.95;;
45694;SDS011;31408;45.468;9.124;2023-08-01T03:28:33;14.93;;;4.85;;
45694;SDS011;31408;45.468;9.124;2023-08-01T03:30:59;10.85;;;4.85;;
45694;SDS011;31408;45.468;9.124;2023-08-01T03:33:24;7.95;;;4.32;;
45694;SDS011;31408;45.468;9.124;2023-08-01T03:35:50;9.13;;;5.40;;
45694;SDS011;31408;45.468;9.124;2023-08-01T03:38:15;8.98;;;5.03;;
45694;SDS011;31408;45.468;9.124;2023-08-01T03:40:41;8.82;;;4.82;;
45694;SDS011;31408;45.468;9.124;2023-08-01T03:43:06;8.80;;;4.80;;
45694;SDS011;31408;45.468;9.124;2023-08-01T03:45:34;8.75;;;5.00;;
45694;SDS011;31408;45.468;9.124;2023-08-01T03:48:00;9.80;;;4.93;;
45694;SDS011;31408;45.468;9.124;2023-08-01T03:50:25;6.57;;;4.30;;
45694;SDS011;31408;45.468;9.124;2023-08-01T03:52:51;6.88;;;4.28;;
45694;SDS011;31408;45.468;9.124;2023-08-01T03:55:16;5.97;;;4.28;;
45694;SDS011;31408;45.468;9.124;2023-08-01T03:57:42;7.47;;;4.00;;
45694;SDS011;31408;45.468;9.124;2023-08-01T04:00:08;7.88;;;4.40;;
45694;SDS011;31408;45.468;9.124;2023-08-01T04:02:41;5.03;;;3.60;;
45694;SDS011;31408;45.468;9.124;2023-08-01T04:05:07;5.25;;;3.80;;
45694;SDS011;31408;45.468;9.124;2023-08-01T04:07:37;5.97;;;4.07;;
45694;SDS011;31408;45.468;9.124;2023-08-01T04:10:03;5.72;;;3.42;;
45694;SDS011;31408;45.468;9.124;2023-08-01T04:12:32;5.50;;;3.28;;
45694;SDS011;31408;45.468;9.124;2023-08-01T04:14:58;3.15;;;2.58;;
45694;SDS011;31408;45.468;9.124;2023-08-01T04:17:24;3.30;;;2.47;;
45694;SDS011;31408;45.468;9.124;2023-08-01T04:19:50;1.90;;;1.75;;
45694;SDS011;31408;45.468;9.124;2023-08-01T04:22:15;3.47;;;2.47;;
45694;SDS011;31408;45.468;9.124;2023-08-01T04:24:41;2.75;;;2.08;;
45694;SDS011;31408;45.468;9.124;2023-08-01T04:27:06;3.70;;;1.85;;
45694;SDS011;31408;45.468;9.124;2023-08-01T04:29:32;3.15;;;1.98;;
45694;SDS011;31408;45.468;9.124;2023-08-01T04:31:57;2.45;;;1.52;;
45694;SDS011;31408;45.468;9.124;2023-08-01T04:34:23;2.65;;;1.60;;
45694;SDS011;31408;45.468;9.124;2023-08-01T04:36:48;3.13;;;1.60;;
45694;SDS011;31408;45.468;9.124;2023-08-01T04:39:14;3.70;;;1.38;;
45694;SDS011;31408;45.468;9.124;2023-08-01T04:41:39;3.80;;;1.83;;
45694;SDS011;31408;45.468;9.124;2023-08-01T04:44:05;2.42;;;1.15;;
45694;SDS011;31408;45.468;9.124;2023-08-01T04:46:31;2.72;;;1.42;;
45694;SDS011;31408;45.468;9.124;2023-08-01T04:48:57;4.65;;;2.22;;
45694;SDS011;31408;45.468;9.124;2023-08-01T04:51:22;1.98;;;1.35;;
45694;SDS011;31408;45.468;9.124;2023-08-01T04:53:47;2.75;;;1.23;;
45694;SDS011;31408;45.468;9.124;2023-08-01T04:56:13;2.28;;;1.85;;
45694;SDS011;31408;45.468;9.124;2023-08-01T04:58:42;2.70;;;1.45;;
45694;SDS011;31408;45.468;9.124;2023-08-01T05:01:07;2.05;;;1.60;;
45694;SDS011;31408;45.468;9.124;2023-08-01T05:03:33;3.08;;;1.30;;
45694;SDS011;31408;45.468;9.124;2023-08-01T05:05:58;3.55;;;1.13;;
45694;SDS011;31408;45.468;9.124;2023-08-01T05:08:24;1.20;;;1.08;;
45694;SDS011;31408;45.468;9.124;2023-08-01T05:10:49;1.55;;;1.17;;
45694;SDS011;31408;45.468;9.124;2023-08-01T05:13:15;1.95;;;1.13;;
45694;SDS011;31408;45.468;9.124;2023-08-01T05:15:43;3.17;;;1.60;;
45694;SDS011;31408;45.468;9.124;2023-08-01T05:18:09;1.13;;;1.05;;
45694;SDS011;31408;45.468;9.124;2023-08-01T05:20:34;4.88;;;1.55;;
45694;SDS011;31408;45.468;9.124;2023-08-01T05:23:00;2.38;;;1.52;;
45694;SDS011;31408;45.468;9.124;2023-08-01T05:25:25;3.00;;;0.98;;
45694;SDS011;31408;45.468;9.124;2023-08-01T05:27:51;1.67;;;1.40;;
45694;SDS011;31408;45.468;9.124;2023-08-01T05:30:16;1.92;;;1.52;;
45694;SDS011;31408;45.468;9.124;2023-08-01T05:32:42;2.20;;;1.35;;
45694;SDS011;31408;45.468;9.124;2023-08-01T05:35:09;1.75;;;1.65;;
45694;SDS011;31408;45.468;9.124;2023-08-01T05:37:34;4.78;;;1.48;;
45694;SDS011;31408;45.468;9.124;2023-08-01T05:40:00;4.85;;;1.38;;
45694;SDS011;31408;45.468;9.124;2023-08-01T05:42:28;3.20;;;2.15;;
45694;SDS011;31408;45.468;9.124;2023-08-01T05:44:53;2.63;;;1.30;;
45694;SDS011;31408;45.468;9.124;2023-08-01T05:47:18;3.05;;;1.50;;
45694;SDS011;31408;45.468;9.124;2023-08-01T05:49:44;2.58;;;1.60;;
45694;SDS011;31408;45.468;9.124;2023-08-01T05:52:09;2.70;;;1.52;;
45694;SDS011;31408;45.468;9.124;2023-08-01T05:54:35;3.13;;;2.00;;
45694;SDS011;31408;45.468;9.124;2023-08-01T05:57:00;4.25;;;1.42;;
45694;SDS011;31408;45.468;9.124;2023-08-01T05:59:26;1.80;;;1.42;;
45694;SDS011;31408;45.468;9.124;2023-08-01T06:01:52;2.38;;;1.50;;
45694;SDS011;31408;45.468;9.124;2023-08-01T06:04:17;1.63;;;1.45;;
45694;SDS011;31408;45.468;9.124;2023-08-01T06:06:42;2.20;;;1.80;;
45694;SDS011;31408;45.468;9.124;2023-08-01T06:09:08;7.70;;;1.98;;
45694;SDS011;31408;45.468;9.124;2023-08-01T06:11:33;3.78;;;2.05;;
45694;SDS011;31408;45.468;9.124;2023-08-01T06:13:59;3.17;;;1.95;;
45694;SDS011;31408;45.468;9.124;2023-08-01T06:16:25;1.77;;;1.45;;
45694;SDS011;31408;45.468;9.124;2023-08-01T06:18:51;3.13;;;1.95;;
45694;SDS011;31408;45.468;9.124;2023-08-01T06:21:16;4.38;;;2.08;;
45694;SDS011;31408;45.468;9.124;2023-08-01T06:23:42;5.00;;;1.80;;
45694;SDS011;31408;45.468;9.124;2023-08-01T06:26:07;4.95;;;2.20;;
45694;SDS011;31408;45.468;9.124;2023-08-01T06:28:33;3.78;;;1.88;;
45694;SDS011;31408;45.468;9.124;2023-08-01T06:30:58;2.72;;;2.28;;
45694;SDS011;31408;45.468;9.124;2023-08-01T06:33:24;2.30;;;1.75;;
45694;SDS011;31408;45.468;9.124;2023-08-01T06:35:49;2.17;;;1.98;;
45694;SDS011;31408;45.468;9.124;2023-08-01T06:38:14;4.60;;;2.83;;
45694;SDS011;31408;45.468;9.124;2023-08-01T06:40:40;2.20;;;1.98;;
45694;SDS011;31408;45.468;9.124;2023-08-01T06:43:05;5.57;;;1.83;;
45694;SDS011;31408;45.468;9.124;2023-08-01T06:45:31;3.15;;;2.35;;
45694;SDS011;31408;45.468;9.124;2023-08-01T06:47:56;2.25;;;1.80;;
45694;SDS011;31408;45.468;9.124;2023-08-01T06:50:22;3.20;;;2.10;;
45694;SDS011;31408;45.468;9.124;2023-08-01T06:52:48;6.93;;;2.38;;
45694;SDS011;31408;45.468;9.124;2023-08-01T06:55:13;3.85;;;2.00;;
45694;SDS011;31408;45.468;9.124;2023-08-01T06:57:39;2.28;;;2.00;;
45694;SDS011;31408;45.468;9.124;2023-08-01T07:00:05;4.40;;;2.30;;
45694;SDS011;31408;45.468;9.124;2023-08-01T07:02:31;5.32;;;2.13;;
45694;SDS011;31408;45.468;9.124;2023-08-01T07:04:56;7.75;;;2.10;;
45694;SDS011;31408;45.468;9.124;2023-08-01T07:07:22;6.13;;;2.22;;
45694;SDS011;31408;45.468;9.124;2023-08-01T07:09:47;2.97;;;1.88;;
45694;SDS011;31408;45.468;9.124;2023-08-01T07:12:13;5.25;;;2.20;;
45694;SDS011;31408;45.468;9.124;2023-08-01T07:14:39;3.33;;;2.22;;
45694;SDS011;31408;45.468;9.124;2023-08-01T07:17:04;3.75;;;2.53;;
45694;SDS011;31408;45.468;9.124;2023-08-01T07:19:30;7.78;;;2.30;;
45694;SDS011;31408;45.468;9.124;2023-08-01T07:21:55;6.95;;;2.85;;
45694;SDS011;31408;45.468;9.124;2023-08-01T07:24:21;5.10;;;2.47;;
45694;SDS011;31408;45.468;9.124;2023-08-01T07:26:46;3.88;;;2.28;;
45694;SDS011;31408;45.468;9.124;2023-08-01T07:29:12;2.63;;;2.28;;
45694;SDS011;31408;45.468;9.124;2023-08-01T07:31:41;2.53;;;2.13;;
45694;SDS011;31408;45.468;9.124;2023-08-01T07:34:07;5.22;;;2.10;;
45694;SDS011;31408;45.468;9.124;2023-08-01T07:36:32;3.70;;;1.98;;
45694;SDS011;31408;45.468;9.124;2023-08-01T07:38:58;2.25;;;1.60;;
45694;SDS011;31408;45.468;9.124;2023-08-01T07:41:23;3.17;;;2.13;;
45694;SDS011;31408;45.468;9.124;2023-08-01T07:43:49;4.63;;;1.90;;
45694;SDS011;31408;45.468;9.124;2023-08-01T07:46:14;3.08;;;1.98;;
45694;SDS011;31408;45.468;9.124;2023-08-01T07:48:40;8.57;;;3.22;;
45694;SDS011;31408;45.468;9.124;2023-08-01T07:51:05;6.38;;;3.30;;
45694;SDS011;31408;45.468;9.124;2023-08-01T07:53:33;4.53;;;2.10;;
45694;SDS011;31408;45.468;9.124;2023-08-01T07:55:59;5.93;;;1.83;;
45694;SDS011;31408;45.468;9.124;2023-08-01T07:58:27;6.05;;;2.10;;
45694;SDS011;31408;45.468;9.124;2023-08-01T08:00:53;3.33;;;2.22;;
45694;SDS011;31408;45.468;9.124;2023-08-01T08:03:18;5.30;;;3.10;;
45694;SDS011;31408;45.468;9.124;2023-08-01T08:05:47;4.45;;;2.00;;
45694;SDS011;31408;45.468;9.124;2023-08-01T08:08:13;2.97;;;2.50;;
45694;SDS011;31408;45.468;9.124;2023-08-01T08:10:38;9.07;;;2.65;;
45694;SDS011;31408;45.468;9.124;2023-08-01T08:13:04;3.67;;;2.33;;
45694;SDS011;31408;45.468;9.124;2023-08-01T08:15:29;3.75;;;2.38;;
45694;SDS011;31408;45.468;9.124;2023-08-01T08:17:58;3.33;;;1.85;;
45694;SDS011;31408;45.468;9.124;2023-08-01T08:20:24;4.90;;;2.25;;
45694;SDS011;31408;45.468;9.124;2023-08-01T08:22:50;6.55;;;2.25;;
45694;SDS011;31408;45.468;9.124;2023-08-01T08:25:15;7.05;;;2.85;;
45694;SDS011;31408;45.468;9.124;2023-08-01T08:27:41;2.30;;;1.88;;
45694;SDS011;31408;45.468;9.124;2023-08-01T08:30:06;4.18;;;2.00;;
45694;SDS011;31408;45.468;9.124;2023-08-01T08:32:32;3.17;;;2.40;;
45694;SDS011;31408;45.468;9.124;2023-08-01T08:34:58;3.33;;;2.42;;
45694;SDS011;31408;45.468;9.124;2023-08-01T08:37:23;5.78;;;2.40;;
45694;SDS011;31408;45.468;9.124;2023-08-01T08:39:48;3.95;;;2.17;;
45694;SDS011;31408;45.468;9.124;2023-08-01T08:42:14;4.18;;;2.30;;
45694;SDS011;31408;45.468;9.124;2023-08-01T08:44:43;4.00;;;2.25;;
45694;SDS011;31408;45.468;9.124;2023-08-01T08:47:10;4.85;;;2.53;;
45694;SDS011;31408;45.468;9.124;2023-08-01T08:49:36;7.70;;;2.30;;
45694;SDS011;31408;45.468;9.124;2023-08-01T08:52:02;2.67;;;1.98;;
45694;SDS011;31408;45.468;9.124;2023-08-01T08:54:28;2.35;;;1.60;;
45694;SDS011;31408;45.468;9.124;2023-08-01T08:56:54;4.63;;;2.90;;
45694;SDS011;31408;45.468;9.124;2023-08-01T08:59:21;3.00;;;2.28;;
45694;SDS011;31408;45.468;9.124;2023-08-01T09:01:46;3.63;;;2.10;;
45694;SDS011;31408;45.468;9.124;2023-08-01T09:04:12;2.55;;;2.03;;
45694;SDS011;31408;45.468;9.124;2023-08-01T09:06:40;5.35;;;2.60;;
45694;SDS011;31408;45.468;9.124;2023-08-01T09:09:13;4.05;;;2.55;;
45694;SDS011;31408;45.468;9.124;2023-08-01T09:11:42;3.17;;;2.25;;
45694;SDS011;31408;45.468;9.124;2023-08-01T09:14:10;7.10;;;2.58;;
45694;SDS011;31408;45.468;9.124;2023-08-01T09:16:35;3.75;;;2.15;;
45694;SDS011;31408;45.468;9.124;2023-08-01T09:19:01;5.15;;;3.25;;
45694;SDS011;31408;45.468;9.124;2023-08-01T09:21:30;4.15;;;2.08;;
45694;SDS011;31408;45.468;9.124;2023-08-01T09:23:58;4.15;;;2.08;;
45694;SDS011;31408;45.468;9.124;2023-08-01T09:26:36;5.32;;;2.40;;
45694;SDS011;31408;45.468;9.124;2023-08-01T09:29:02;4.40;;;2.03;;
45694;SDS011;31408;45.468;9.124;2023-08-01T09:31:31;5.35;;;2.60;;
45694;SDS011;31408;45.468;9.124;2023-08-01T09:33:59;6.78;;;3.10;;
45694;SDS011;31408;45.468;9.124;2023-08-01T09:36:25;5.68;;;2.60;;
45694;SDS011;31408;45.468;9.124;2023-08-01T09:38:50;2.17;;;1.92;;
45694;SDS011;31408;45.468;9.124;2023-08-01T09:41:19;4.20;;;2.75;;
45694;SDS011;31408;45.468;9.124;2023-08-01T09:43:48;3.42;;;2.55;;
45694;SDS011;31408;45.468;9.124;2023-08-01T09:46:14;3.55;;;2.25;;
45694;SDS011;31408;45.468;9.124;2023-08-01T09:48:40;12.27;;;2.90;;
45694;SDS011;31408;45.468;9.124;2023-08-01T09:51:24;4.65;;;2.72;;
45694;SDS011;31408;45.468;9.124;2023-08-01T09:53:56;3.85;;;2.42;;
45694;SDS011;31408;45.468;9.124;2023-08-01T09:56:22;5.25;;;2.78;;
45694;SDS011;31408;45.468;9.124;2023-08-01T09:58:49;2.67;;;2.25;;
45694;SDS011;31408;45.468;9.124;2023-08-01T10:01:16;5.22;;;2.50;;
45694;SDS011;31408;45.468;9.124;2023-08-01T10:03:48;5.30;;;2.47;;
45694;SDS011;31408;45.468;9.124;2023-08-01T10:06:22;6.68;;;2.65;;
45694;SDS011;31408;45.468;9.124;2023-08-01T10:08:49;4.05;;;2.90;;
45694;SDS011;31408;45.468;9.124;2023-08-01T10:11:16;5.80;;;3.28;;
45694;SDS011;31408;45.468;9.124;2023-08-01T10:13:43;4.43;;;2.80;;
45694;SDS011;31408;45.468;9.124;2023-08-01T10:16:09;5.90;;;2.50;;
45694;SDS011;31408;45.468;9.124;2023-08-01T10:18:35;5.13;;;2.78;;
45694;SDS011;31408;45.468;9.124;2023-08-01T10:21:03;3.53;;;2.35;;
45694;SDS011;31408;45.468;9.124;2023-08-01T10:23:30;5.45;;;2.25;;
45694;SDS011;31408;45.468;9.124;2023-08-01T10:25:56;4.32;;;2.47;;
45694;SDS011;31408;45.468;9.124;2023-08-01T10:28:30;4.13;;;2.67;;
45694;SDS011;31408;45.468;9.124;2023-08-01T10:31:06;3.78;;;2.33;;
45694;SDS011;31408;45.468;9.124;2023-08-01T10:33:34;9.82;;;2.70;;
45694;SDS011;31408;45.468;9.124;2023-08-01T10:36:00;3.90;;;2.60;;
45694;SDS011;31408;45.468;9.124;2023-08-01T10:38:25;11.07;;;2.97;;
45694;SDS011;31408;45.468;9.124;2023-08-01T10:40:51;8.02;;;2.90;;
45694;SDS011;31408;45.468;9.124;2023-08-01T10:45:46;6.22;;;3.75;;
45694;SDS011;31408;45.468;9.124;2023-08-01T10:48:11;6.68;;;3.17;;
45694;SDS011;31408;45.468;9.124;2023-08-01T10:50:37;6.20;;;2.88;;
45694;SDS011;31408;45.468;9.124;2023-08-01T10:53:08;9.18;;;3.40;;
45694;SDS011;31408;45.468;9.124;2023-08-01T10:55:41;7.00;;;3.33;;
45694;SDS011;31408;45.468;9.124;2023-08-01T10:58:07;7.80;;;2.78;;
45694;SDS011;31408;45.468;9.124;2023-08-01T11:00:33;13.80;;;3.50;;
45694;SDS011;31408;45.468;9.124;2023-08-01T11:02:58;9.20;;;3.33;;
45694;SDS011;31408;45.468;9.124;2023-08-01T11:05:24;5.55;;;3.25;;
45694;SDS011;31408;45.468;9.124;2023-08-01T11:08:09;7.93;;;3.70;;
45694;SDS011;31408;45.468;9.124;2023-08-01T11:10:35;8.57;;;3.72;;
45694;SDS011;31408;45.468;9.124;2023-08-01T11:13:00;15.07;;;3.88;;
45694;SDS011;31408;45.468;9.124;2023-08-01T11:15:26;12.13;;;3.80;;
45694;SDS011;31408;45.468;9.124;2023-08-01T11:17:54;8.30;;;3.03;;
45694;SDS011;31408;45.468;9.124;2023-08-01T11:20:22;14.82;;;4.15;;
45694;SDS011;31408;45.468;9.124;2023-08-01T11:22:55;9.02;;;3.63;;
45694;SDS011;31408;45.468;9.124;2023-08-01T11:25:33;4.22;;;2.67;;
45694;SDS011;31408;45.468;9.124;2023-08-01T11:30:30;8.38;;;3.63;;
45694;SDS011;31408;45.468;9.124;2023-08-01T11:32:56;8.65;;;3.17;;
45694;SDS011;31408;45.468;9.124;2023-08-01T11:35:22;10.50;;;3.38;;
45694;SDS011;31408;45.468;9.124;2023-08-01T11:37:47;5.75;;;3.15;;
45694;SDS011;31408;45.468;9.124;2023-08-01T11:40:15;7.13;;;3.03;;
45694;SDS011;31408;45.468;9.124;2023-08-01T11:42:41;7.35;;;3.05;;
45694;SDS011;31408;45.468;9.124;2023-08-01T11:45:07;7.25;;;2.97;;
45694;SDS011;31408;45.468;9.124;2023-08-01T11:47:33;8.27;;;3.53;;
45694;SDS011;31408;45.468;9.124;2023-08-01T11:49:59;8.18;;;3.40;;
45694;SDS011;31408;45.468;9.124;2023-08-01T11:52:25;4.60;;;2.85;;
45694;SDS011;31408;45.468;9.124;2023-08-01T11:54:51;6.25;;;3.53;;
45694;SDS011;31408;45.468;9.124;2023-08-01T11:57:17;10.40;;;3.70;;
45694;SDS011;31408;45.468;9.124;2023-08-01T11:59:46;9.95;;;4.18;;
45694;SDS011;31408;45.468;9.124;2023-08-01T12:02:20;9.27;;;3.58;;
45694;SDS011;31408;45.468;9.124;2023-08-01T12:04:46;8.07;;;3.20;;
45694;SDS011;31408;45.468;9.124;2023-08-01T12:07:13;7.93;;;3.90;;
45694;SDS011;31408;45.468;9.124;2023-08-01T12:09:40;7.88;;;3.08;;
45694;SDS011;31408;45.468;9.124;2023-08-01T12:12:05;6.18;;;3.47;;
45694;SDS011;31408;45.468;9.124;2023-08-01T12:14:31;11.68;;;3.40;;
45694;SDS011;31408;45.468;9.124;2023-08-01T12:16:57;8.52;;;3.53;;
45694;SDS011;31408;45.468;9.124;2023-08-01T12:19:22;7.15;;;3.33;;
45694;SDS011;31408;45.468;9.124;2023-08-01T12:21:48;6.63;;;3.45;;
45694;SDS011;31408;45.468;9.124;2023-08-01T12:24:14;9.52;;;3.40;;
45694;SDS011;31408;45.468;9.124;2023-08-01T12:26:39;9.18;;;3.13;;
45694;SDS011;31408;45.468;9.124;2023-08-01T12:29:05;6.45;;;2.80;;
45694;SDS011;31408;45.468;9.124;2023-08-01T12:31:30;9.05;;;3.47;;
45694;SDS011;31408;45.468;9.124;2023-08-01T12:33:56;6.80;;;3.90;;
45694;SDS011;31408;45.468;9.124;2023-08-01T12:36:21;8.60;;;3.38;;
45694;SDS011;31408;45.468;9.124;2023-08-01T12:38:47;7.75;;;3.10;;
45694;SDS011;31408;45.468;9.124;2023-08-01T12:41:12;8.07;;;2.95;;
45694;SDS011;31408;45.468;9.124;2023-08-01T12:43:38;8.75;;;3.00;;
45694;SDS011;31408;45.468;9.124;2023-08-01T12:46:03;6.63;;;3.60;;
45694;SDS011;31408;45.468;9.124;2023-08-01T12:48:29;6.53;;;3.90;;
45694;SDS011;31408;45.468;9.124;2023-08-01T12:50:55;9.23;;;3.42;;
45694;SDS011;31408;45.468;9.124;2023-08-01T12:53:21;4.68;;;3.20;;
45694;SDS011;31408;45.468;9.124;2023-08-01T12:55:48;7.55;;;2.95;;
45694;SDS011;31408;45.468;9.124;2023-08-01T12:58:15;7.10;;;3.25;;
45694;SDS011;31408;45.468;9.124;2023-08-01T13:00:40;7.15;;;3.30;;
45694;SDS011;31408;45.468;9.124;2023-08-01T13:03:06;11.32;;;3.65;;
45694;SDS011;31408;45.468;9.124;2023-08-01T13:05:39;9.00;;;3.00;;
45694;SDS011;31408;45.468;9.124;2023-08-01T13:08:06;5.10;;;2.78;;
45694;SDS011;31408;45.468;9.124;2023-08-01T13:10:32;8.90;;;3.38;;
45694;SDS011;31408;45.468;9.124;2023-08-01T13:12:58;8.02;;;3.22;;
45694;SDS011;31408;45.468;9.124;2023-08-01T13:15:24;6.03;;;3.55;;
45694;SDS011;31408;45.468;9.124;2023-08-01T13:17:50;5.35;;;3.15;;
45694;SDS011;31408;45.468;9.124;2023-08-01T13:20:15;14.77;;;5.55;;
45694;SDS011;31408;45.468;9.124;2023-08-01T13:22:41;9.93;;;3.88;;
45694;SDS011;31408;45.468;9.124;2023-08-01T13:25:07;13.77;;;5.43;;
45694;SDS011;31408;45.468;9.124;2023-08-01T13:27:36;9.63;;;3.90;;
45694;SDS011;31408;45.468;9.124;2023-08-01T13:30:02;11.80;;;3.55;;
45694;SDS011;31408;45.468;9.124;2023-08-01T13:32:28;6.95;;;3.10;;
45694;SDS011;31408;45.468;9.124;2023-08-01T13:34:53;10.02;;;2.95;;
45694;SDS011;31408;45.468;9.124;2023-08-01T13:37:19;15.25;;;4.43;;
45694;SDS011;31408;45.468;9.124;2023-08-01T13:39:44;7.38;;;3.50;;
45694;SDS011;31408;45.468;9.124;2023-08-01T13:42:11;12.80;;;3.47;;
45694;SDS011;31408;45.468;9.124;2023-08-01T13:44:37;7.57;;;3.15;;
45694;SDS011;31408;45.468;9.124;2023-08-01T13:47:02;8.23;;;3.63;;
45694;SDS011;31408;45.468;9.124;2023-08-01T13:49:34;9.55;;;3.42;;
45694;SDS011;31408;45.468;9.124;2023-08-01T13:51:59;10.93;;;4.20;;
45694;SDS011;31408;45.468;9.124;2023-08-01T13:54:25;13.07;;;3.55;;
45694;SDS011;31408;45.468;9.124;2023-08-01T13:56:51;7.13;;;3.22;;
45694;SDS011;31408;45.468;9.124;2023-08-01T13:59:18;5.63;;;3.92;;
45694;SDS011;31408;45.468;9.124;2023-08-01T14:01:45;7.47;;;3.55;;
45694;SDS011;31408;45.468;9.124;2023-08-01T14:04:10;9.35;;;3.20;;
45694;SDS011;31408;45.468;9.124;2023-08-01T14:06:39;5.68;;;3.30;;
45694;SDS011;31408;45.468;9.124;2023-08-01T14:09:06;5.97;;;3.70;;
45694;SDS011;31408;45.468;9.124;2023-08-01T14:11:31;6.65;;;3.10;;
45694;SDS011;31408;45.468;9.124;2023-08-01T14:13:57;6.95;;;2.80;;
45694;SDS011;31408;45.468;9.124;2023-08-01T14:16:22;8.85;;;2.97;;
45694;SDS011;31408;45.468;9.124;2023-08-01T14:18:48;8.63;;;3.40;;
45694;SDS011;31408;45.468;9.124;2023-08-01T14:21:13;8.93;;;3.78;;
45694;SDS011;31408;45.468;9.124;2023-08-01T14:23:39;8.02;;;3.00;;
45694;SDS011;31408;45.468;9.124;2023-08-01T14:26:06;5.90;;;3.60;;
45694;SDS011;31408;45.468;9.124;2023-08-01T14:28:32;6.78;;;2.78;;
45694;SDS011;31408;45.468;9.124;2023-08-01T14:30:59;6.65;;;3.28;;
45694;SDS011;31408;45.468;9.124;2023-08-01T14:33:26;8.75;;;3.22;;
45694;SDS011;31408;45.468;9.124;2023-08-01T14:35:53;9.05;;;3.03;;
45694;SDS011;31408;45.468;9.124;2023-08-01T14:38:18;9.93;;;4.13;;
45694;SDS011;31408;45.468;9.124;2023-08-01T14:40:43;6.97;;;3.55;;
45694;SDS011;31408;45.468;9.124;2023-08-01T14:43:09;6.88;;;2.95;;
45694;SDS011;31408;45.468;9.124;2023-08-01T14:45:37;7.00;;;3.60;;